Ana Sayfa
METAR-TAF:

METAR-TAF

Havaalanları :

Koror, Babeldaob, Palau

Enlem: 07-22N, Boylam: 134-32E, yükseklik: 54 m

Güncel hava durumu gözlemi

Rapor saat 18:50 UTC de 1 saat ve 0 dakika önce yapıldı.
Sakin rüzgar
Sıcaklık 24°C
Nem 94%
Basınç 1007 hPa
Görüş mesafesi: 22.5 km
1600 ft yükseklikte parçalı bulutlu
11000 ft yükseklikte parçalı bulutlu
29000 ft yükseklikte parçalı çok bulutlu

METAR: PTRO 101850Z 00000KT 14SM SCT016 SCT110 BKN290 24/23 A2975

Saat: 04:50 (19:50 UTC)

Tahmin

Rapor saat 17:20 UTC de 2 saat ve 30 dakika önce yapıldı.
Ayın 10'si saat 18 UTC'den ayın 11'si saat 18 UTC'ye kadar geçerli Tahmin
Rüzgar doğu/kuzeydoğudan 9 kt
Görüş mesafesi: 10 km
1700 ft yükseklikte parçalı bulutlu

TAF: PTRO 101720Z 1018/1118 06009KT P6SM SCT017

4.000'den fazla havaalanı için hava durumu gözlemleri ve tahminleri (METAR ve TAF raporları).

Kullanılabilir istasyonlar harita üzerinde sarı ve kırmızı noktalarla gösterilir.

İstasyonun adını görmek için fareyi noktanın üzerinde gezdirin.

Sonrasında hava gözlem ve tahminlerini görmek için tıklayın.

Haritayı değiştirmek için: yaklaştırmak için siyah artı işaretli yeşil düğmeye ve uzaklaştırmak için de eksi işaretli düğmeye hızla tıklayın; bitişik haritalar için yeşil okları kullanın.


METAR-TAF: